sensor_id;sensor_type;location;lat;lon;timestamp;temperature;humidity
65040;HTU21D;51606;45.000;38.612;2024-03-02T05:22:41;2.45;60.98
65040;HTU21D;51606;45.000;38.612;2024-03-02T05:25:08;2.69;60.99
65040;HTU21D;51606;45.000;38.612;2024-03-02T05:27:36;2.98;61.12
65040;HTU21D;51606;45.000;38.612;2024-03-02T05:30:03;3.29;61.09
65040;HTU21D;51606;45.000;38.612;2024-03-02T05:32:33;3.60;61.03
65040;HTU21D;51606;45.000;38.612;2024-03-02T05:34:59;3.87;61.02
65040;HTU21D;51606;45.000;38.612;2024-03-02T05:37:25;4.12;60.90
65040;HTU21D;51606;45.000;38.612;2024-03-02T05:39:52;4.33;60.88
65040;HTU21D;51606;45.000;38.612;2024-03-02T05:42:19;4.61;60.76
65040;HTU21D;51606;45.000;38.612;2024-03-02T05:44:45;4.81;60.58
65040;HTU21D;51606;45.000;38.612;2024-03-02T05:47:11;5.05;60.55
65040;HTU21D;51606;45.000;38.612;2024-03-02T05:49:38;5.35;60.35
65040;HTU21D;51606;45.000;38.612;2024-03-02T05:52:05;5.67;60.20
65040;HTU21D;51606;45.000;38.612;2024-03-02T05:54:31;5.85;60.01
65040;HTU21D;51606;45.000;38.612;2024-03-02T05:56:57;6.05;60.18
65040;HTU21D;51606;45.000;38.612;2024-03-02T05:59:42;6.66;59.73
65040;HTU21D;51606;45.000;38.612;2024-03-02T06:02:09;7.02;59.36
65040;HTU21D;51606;45.000;38.612;2024-03-02T06:04:36;7.25;59.42
65040;HTU21D;51606;45.000;38.612;2024-03-02T06:07:02;7.47;59.46
65040;HTU21D;51606;45.000;38.612;2024-03-02T06:09:29;7.62;59.67
65040;HTU21D;51606;45.000;38.612;2024-03-02T06:11:55;7.94;59.50
65040;HTU21D;51606;45.000;38.612;2024-03-02T06:14:21;8.09;59.44
65040;HTU21D;51606;45.000;38.612;2024-03-02T06:16:48;8.28;59.55
65040;HTU21D;51606;45.000;38.612;2024-03-02T06:19:14;8.70;59.41
65040;HTU21D;51606;45.000;38.612;2024-03-02T06:21:41;8.96;59.16
65040;HTU21D;51606;45.000;38.612;2024-03-02T06:24:07;8.68;59.55
65040;HTU21D;51606;45.000;38.612;2024-03-02T06:26:34;8.39;60.15
65040;HTU21D;51606;45.000;38.612;2024-03-02T06:29:00;8.32;60.53
65040;HTU21D;51606;45.000;38.612;2024-03-02T06:31:28;8.35;60.64
65040;HTU21D;51606;45.000;38.612;2024-03-02T06:33:54;8.27;60.60
65040;HTU21D;51606;45.000;38.612;2024-03-02T06:36:21;8.20;60.87
65040;HTU21D;51606;45.000;38.612;2024-03-02T06:38:47;8.11;60.91
65040;HTU21D;51606;45.000;38.612;2024-03-02T06:41:13;8.05;61.04
65040;HTU21D;51606;45.000;38.612;2024-03-02T06:43:40;8.14;61.21
65040;HTU21D;51606;45.000;38.612;2024-03-02T06:46:06;8.38;61.29
65040;HTU21D;51606;45.000;38.612;2024-03-02T06:48:35;8.64;61.38
65040;HTU21D;51606;45.000;38.612;2024-03-02T06:51:01;8.80;61.18
65040;HTU21D;51606;45.000;38.612;2024-03-02T06:53:28;8.91;61.06
65040;HTU21D;51606;45.000;38.612;2024-03-02T06:55:56;8.81;60.95
65040;HTU21D;51606;45.000;38.612;2024-03-02T06:58:22;8.66;61.15
65040;HTU21D;51606;45.000;38.612;2024-03-02T07:00:48;8.57;61.09
65040;HTU21D;51606;45.000;38.612;2024-03-02T07:03:14;8.56;61.09
65040;HTU21D;51606;45.000;38.612;2024-03-02T07:05:41;8.59;60.81
65040;HTU21D;51606;45.000;38.612;2024-03-02T07:08:07;8.58;60.68
65040;HTU21D;51606;45.000;38.612;2024-03-02T07:10:34;8.61;60.58
65040;HTU21D;51606;45.000;38.612;2024-03-02T07:13:00;8.90;60.44
65040;HTU21D;51606;45.000;38.612;2024-03-02T07:15:26;9.42;60.21
65040;HTU21D;51606;45.000;38.612;2024-03-02T07:17:53;9.96;59.51
65040;HTU21D;51606;45.000;38.612;2024-03-02T07:20:19;10.19;59.28
65040;HTU21D;51606;45.000;38.612;2024-03-02T07:22:45;10.33;59.19
65040;HTU21D;51606;45.000;38.612;2024-03-02T07:25:12;10.40;59.23
65040;HTU21D;51606;45.000;38.612;2024-03-02T07:27:39;10.49;59.22
65040;HTU21D;51606;45.000;38.612;2024-03-02T07:30:06;10.52;59.22
65040;HTU21D;51606;45.000;38.612;2024-03-02T07:32:33;10.41;59.17
65040;HTU21D;51606;45.000;38.612;2024-03-02T07:34:59;10.34;59.26
65040;HTU21D;51606;45.000;38.612;2024-03-02T07:37:27;10.51;59.44
65040;HTU21D;51606;45.000;38.612;2024-03-02T07:39:53;10.94;59.21
65040;HTU21D;51606;45.000;38.612;2024-03-02T07:42:20;11.39;58.83
65040;HTU21D;51606;45.000;38.612;2024-03-02T07:44:46;11.93;58.58
65040;HTU21D;51606;45.000;38.612;2024-03-02T07:47:13;12.46;58.08
65040;HTU21D;51606;45.000;38.612;2024-03-02T07:49:40;12.81;57.84
65040;HTU21D;51606;45.000;38.612;2024-03-02T07:52:06;13.01;57.67
65040;HTU21D;51606;45.000;38.612;2024-03-02T07:54:33;13.03;57.72
65040;HTU21D;51606;45.000;38.612;2024-03-02T07:57:00;13.14;57.65
65040;HTU21D;51606;45.000;38.612;2024-03-02T07:59:26;13.25;57.51
65040;HTU21D;51606;45.000;38.612;2024-03-02T08:01:53;13.32;57.45
65040;HTU21D;51606;45.000;38.612;2024-03-02T08:04:21;13.48;57.43
65040;HTU21D;51606;45.000;38.612;2024-03-02T08:06:47;13.60;57.30
65040;HTU21D;51606;45.000;38.612;2024-03-02T08:09:14;13.75;57.30
65040;HTU21D;51606;45.000;38.612;2024-03-02T08:11:40;13.75;56.80
65040;HTU21D;51606;45.000;38.612;2024-03-02T08:14:06;13.71;56.66
65040;HTU21D;51606;45.000;38.612;2024-03-02T08:16:33;13.65;56.74
65040;HTU21D;51606;45.000;38.612;2024-03-02T08:19:00;13.66;56.81
65040;HTU21D;51606;45.000;38.612;2024-03-02T08:21:26;13.78;56.52
65040;HTU21D;51606;45.000;38.612;2024-03-02T08:23:57;13.71;56.22
65040;HTU21D;51606;45.000;38.612;2024-03-02T08:26:24;13.68;56.53
65040;HTU21D;51606;45.000;38.612;2024-03-02T08:28:51;13.90;56.18
65040;HTU21D;51606;45.000;38.612;2024-03-02T08:31:17;14.06;55.73
65040;HTU21D;51606;45.000;38.612;2024-03-02T08:33:44;14.10;55.38
65040;HTU21D;51606;45.000;38.612;2024-03-02T08:36:10;14.35;55.52
65040;HTU21D;51606;45.000;38.612;2024-03-02T08:38:37;14.57;55.20
65040;HTU21D;51606;45.000;38.612;2024-03-02T08:41:04;14.56;55.12
65040;HTU21D;51606;45.000;38.612;2024-03-02T08:43:30;14.40;55.34
65040;HTU21D;51606;45.000;38.612;2024-03-02T08:45:57;14.20;55.52
65040;HTU21D;51606;45.000;38.612;2024-03-02T08:48:23;14.04;55.19
65040;HTU21D;51606;45.000;38.612;2024-03-02T08:50:50;13.90;55.26
65040;HTU21D;51606;45.000;38.612;2024-03-02T08:53:19;13.94;55.00
65040;HTU21D;51606;45.000;38.612;2024-03-02T08:55:48;13.76;54.91
65040;HTU21D;51606;45.000;38.612;2024-03-02T08:58:15;13.56;55.06
65040;HTU21D;51606;45.000;38.612;2024-03-02T09:00:42;13.68;55.18
65040;HTU21D;51606;45.000;38.612;2024-03-02T09:03:08;13.64;54.71
65040;HTU21D;51606;45.000;38.612;2024-03-02T09:05:35;13.73;54.91
65040;HTU21D;51606;45.000;38.612;2024-03-02T09:08:01;13.78;54.45
65040;HTU21D;51606;45.000;38.612;2024-03-02T09:10:29;13.54;54.58
65040;HTU21D;51606;45.000;38.612;2024-03-02T09:12:56;13.49;54.62
65040;HTU21D;51606;45.000;38.612;2024-03-02T09:15:22;13.51;54.55
65040;HTU21D;51606;45.000;38.612;2024-03-02T09:17:48;13.41;54.49
65040;HTU21D;51606;45.000;38.612;2024-03-02T09:20:15;13.58;54.45
65040;HTU21D;51606;45.000;38.612;2024-03-02T09:22:42;13.81;54.15
65040;HTU21D;51606;45.000;38.612;2024-03-02T09:25:09;14.05;53.81
65040;HTU21D;51606;45.000;38.612;2024-03-02T09:27:39;14.09;53.51
65040;HTU21D;51606;45.000;38.612;2024-03-02T09:30:08;14.23;53.62
65040;HTU21D;51606;45.000;38.612;2024-03-02T09:32:36;14.43;53.20
65040;HTU21D;51606;45.000;38.612;2024-03-02T09:35:02;14.38;52.69
65040;HTU21D;51606;45.000;38.612;2024-03-02T09:37:29;14.33;52.87
65040;HTU21D;51606;45.000;38.612;2024-03-02T09:39:55;14.51;52.80
65040;HTU21D;51606;45.000;38.612;2024-03-02T09:42:22;14.60;52.43
65040;HTU21D;51606;45.000;38.612;2024-03-02T09:44:49;14.57;52.55
65040;HTU21D;51606;45.000;38.612;2024-03-02T09:47:15;14.57;52.56
65040;HTU21D;51606;45.000;38.612;2024-03-02T09:49:41;14.56;52.42
65040;HTU21D;51606;45.000;38.612;2024-03-02T09:52:08;14.70;52.46
65040;HTU21D;51606;45.000;38.612;2024-03-02T09:54:35;14.74;52.31
65040;HTU21D;51606;45.000;38.612;2024-03-02T09:57:02;14.88;52.48
65040;HTU21D;51606;45.000;38.612;2024-03-02T09:59:29;15.00;52.10
65040;HTU21D;51606;45.000;38.612;2024-03-02T10:01:59;15.04;51.95
65040;HTU21D;51606;45.000;38.612;2024-03-02T10:04:27;14.95;51.62
65040;HTU21D;51606;45.000;38.612;2024-03-02T10:07:13;14.68;50.85
65040;HTU21D;51606;45.000;38.612;2024-03-02T10:09:41;14.24;50.53
65040;HTU21D;51606;45.000;38.612;2024-03-02T10:12:09;13.89;50.37
65040;HTU21D;51606;45.000;38.612;2024-03-02T10:14:37;13.74;50.35
65040;HTU21D;51606;45.000;38.612;2024-03-02T10:17:06;13.63;50.27
65040;HTU21D;51606;45.000;38.612;2024-03-02T10:19:33;13.52;50.24
65040;HTU21D;51606;45.000;38.612;2024-03-02T10:22:05;13.32;49.95
65040;HTU21D;51606;45.000;38.612;2024-03-02T10:24:37;13.26;50.05
65040;HTU21D;51606;45.000;38.612;2024-03-02T10:27:09;13.24;50.08
65040;HTU21D;51606;45.000;38.612;2024-03-02T10:29:39;13.25;50.10
65040;HTU21D;51606;45.000;38.612;2024-03-02T10:32:10;13.20;50.00
65040;HTU21D;51606;45.000;38.612;2024-03-02T10:34:41;12.96;49.56
65040;HTU21D;51606;45.000;38.612;2024-03-02T10:37:08;12.89;50.01
65040;HTU21D;51606;45.000;38.612;2024-03-02T10:39:36;12.76;49.52
65040;HTU21D;51606;45.000;38.612;2024-03-02T10:42:03;12.60;49.89
65040;HTU21D;51606;45.000;38.612;2024-03-02T10:44:31;12.48;49.58
65040;HTU21D;51606;45.000;38.612;2024-03-02T10:47:04;12.37;49.56
65040;HTU21D;51606;45.000;38.612;2024-03-02T10:49:31;12.35;49.72
65040;HTU21D;51606;45.000;38.612;2024-03-02T10:52:01;12.30;49.50
65040;HTU21D;51606;45.000;38.612;2024-03-02T10:54:28;12.22;49.65
65040;HTU21D;51606;45.000;38.612;2024-03-02T10:57:03;12.27;49.57
65040;HTU21D;51606;45.000;38.612;2024-03-02T10:59:35;12.23;49.45
65040;HTU21D;51606;45.000;38.612;2024-03-02T11:02:03;12.23;49.59
65040;HTU21D;51606;45.000;38.612;2024-03-02T11:04:31;12.28;49.60
65040;HTU21D;51606;45.000;38.612;2024-03-02T11:07:07;12.22;49.43
65040;HTU21D;51606;45.000;38.612;2024-03-02T11:09:35;12.12;49.50
65040;HTU21D;51606;45.000;38.612;2024-03-02T11:12:09;12.06;49.72
65040;HTU21D;51606;45.000;38.612;2024-03-02T11:14:41;12.06;49.75
65040;HTU21D;51606;45.000;38.612;2024-03-02T11:17:13;12.08;49.78
65040;HTU21D;51606;45.000;38.612;2024-03-02T11:19:42;12.14;49.76
65040;HTU21D;51606;45.000;38.612;2024-03-02T11:22:09;12.17;49.72
65040;HTU21D;51606;45.000;38.612;2024-03-02T11:24:36;12.15;49.74
65040;HTU21D;51606;45.000;38.612;2024-03-02T11:27:07;12.13;49.70
65040;HTU21D;51606;45.000;38.612;2024-03-02T11:32:15;12.06;49.88
65040;HTU21D;51606;45.000;38.612;2024-03-02T11:34:44;12.04;49.89
65040;HTU21D;51606;45.000;38.612;2024-03-02T11:37:13;12.00;49.89
65040;HTU21D;51606;45.000;38.612;2024-03-02T11:39:40;11.97;49.97
65040;HTU21D;51606;45.000;38.612;2024-03-02T11:42:07;11.91;50.11
65040;HTU21D;51606;45.000;38.612;2024-03-02T11:44:37;11.90;50.08
65040;HTU21D;51606;45.000;38.612;2024-03-02T11:47:10;11.88;50.11
65040;HTU21D;51606;45.000;38.612;2024-03-02T11:52:07;11.91;50.18
65040;HTU21D;51606;45.000;38.612;2024-03-02T11:54:40;11.97;50.20
65040;HTU21D;51606;45.000;38.612;2024-03-02T11:57:13;11.99;50.03
65040;HTU21D;51606;45.000;38.612;2024-03-02T11:59:43;12.00;50.12
65040;HTU21D;51606;45.000;38.612;2024-03-02T12:02:18;12.03;50.11
65040;HTU21D;51606;45.000;38.612;2024-03-02T12:04:46;12.08;50.14
65040;HTU21D;51606;45.000;38.612;2024-03-02T12:07:21;12.12;50.05
65040;HTU21D;51606;45.000;38.612;2024-03-02T12:09:49;12.14;50.11
65040;HTU21D;51606;45.000;38.612;2024-03-02T12:12:16;12.12;50.18
65040;HTU21D;51606;45.000;38.612;2024-03-02T12:14:52;12.10;50.25
65040;HTU21D;51606;45.000;38.612;2024-03-02T12:17:22;12.06;50.37
65040;HTU21D;51606;45.000;38.612;2024-03-02T12:19:48;12.03;50.46
65040;HTU21D;51606;45.000;38.612;2024-03-02T12:22:14;12.04;50.52
65040;HTU21D;51606;45.000;38.612;2024-03-02T12:24:44;12.04;50.53
65040;HTU21D;51606;45.000;38.612;2024-03-02T12:27:13;12.01;50.59
65040;HTU21D;51606;45.000;38.612;2024-03-02T12:29:41;11.96;50.67
65040;HTU21D;51606;45.000;38.612;2024-03-02T12:32:07;11.96;50.69
65040;HTU21D;51606;45.000;38.612;2024-03-02T12:34:33;11.91;50.69
65040;HTU21D;51606;45.000;38.612;2024-03-02T12:37:00;11.86;50.76
65040;HTU21D;51606;45.000;38.612;2024-03-02T12:39:26;11.84;50.88
65040;HTU21D;51606;45.000;38.612;2024-03-02T12:41:53;11.84;50.88
65040;HTU21D;51606;45.000;38.612;2024-03-02T12:44:20;11.86;50.96
65040;HTU21D;51606;45.000;38.612;2024-03-02T12:46:47;11.90;50.95
65040;HTU21D;51606;45.000;38.612;2024-03-02T12:49:14;11.92;50.98
65040;HTU21D;51606;45.000;38.612;2024-03-02T12:51:46;11.94;50.98
65040;HTU21D;51606;45.000;38.612;2024-03-02T12:54:18;11.93;51.06
65040;HTU21D;51606;45.000;38.612;2024-03-02T12:56:44;11.93;51.12
65040;HTU21D;51606;45.000;38.612;2024-03-02T12:59:19;11.91;51.22
65040;HTU21D;51606;45.000;38.612;2024-03-02T13:01:55;11.90;51.29
65040;HTU21D;51606;45.000;38.612;2024-03-02T13:04:26;11.87;51.40
65040;HTU21D;51606;45.000;38.612;2024-03-02T13:06:54;11.86;51.46
65040;HTU21D;51606;45.000;38.612;2024-03-02T13:09:21;11.84;51.56
65040;HTU21D;51606;45.000;38.612;2024-03-02T13:11:48;11.79;51.66
65040;HTU21D;51606;45.000;38.612;2024-03-02T13:14:15;11.77;51.72
65040;HTU21D;51606;45.000;38.612;2024-03-02T13:16:42;11.72;51.79
65040;HTU21D;51606;45.000;38.612;2024-03-02T13:19:09;11.71;51.88
65040;HTU21D;51606;45.000;38.612;2024-03-02T13:21:36;11.71;51.90
65040;HTU21D;51606;45.000;38.612;2024-03-02T13:24:03;11.71;51.94
65040;HTU21D;51606;45.000;38.612;2024-03-02T13:26:29;11.71;51.99
65040;HTU21D;51606;45.000;38.612;2024-03-02T13:28:56;11.67;52.04
65040;HTU21D;51606;45.000;38.612;2024-03-02T13:31:23;11.66;52.11
65040;HTU21D;51606;45.000;38.612;2024-03-02T13:33:49;11.64;52.17
65040;HTU21D;51606;45.000;38.612;2024-03-02T13:36:15;11.62;52.24
65040;HTU21D;51606;45.000;38.612;2024-03-02T13:38:43;11.57;52.31
65040;HTU21D;51606;45.000;38.612;2024-03-02T13:41:10;11.55;52.39
65040;HTU21D;51606;45.000;38.612;2024-03-02T13:43:37;11.49;52.46
65040;HTU21D;51606;45.000;38.612;2024-03-02T13:46:05;11.46;52.53
65040;HTU21D;51606;45.000;38.612;2024-03-02T13:48:32;11.43;52.62
65040;HTU21D;51606;45.000;38.612;2024-03-02T13:50:58;11.40;52.71
65040;HTU21D;51606;45.000;38.612;2024-03-02T13:53:25;11.34;52.79
65040;HTU21D;51606;45.000;38.612;2024-03-02T13:55:51;11.31;52.88
65040;HTU21D;51606;45.000;38.612;2024-03-02T13:58:18;11.28;52.96
65040;HTU21D;51606;45.000;38.612;2024-03-02T14:00:46;11.23;53.03
65040;HTU21D;51606;45.000;38.612;2024-03-02T14:03:13;11.18;53.12
65040;HTU21D;51606;45.000;38.612;2024-03-02T14:05:39;11.15;53.23
65040;HTU21D;51606;45.000;38.612;2024-03-02T14:08:06;11.10;53.33
65040;HTU21D;51606;45.000;38.612;2024-03-02T14:10:32;11.04;53.43
65040;HTU21D;51606;45.000;38.612;2024-03-02T14:12:59;11.00;53.52
65040;HTU21D;51606;45.000;38.612;2024-03-02T14:15:25;10.94;53.61
65040;HTU21D;51606;45.000;38.612;2024-03-02T14:17:51;10.87;53.72
65040;HTU21D;51606;45.000;38.612;2024-03-02T14:20:18;10.82;53.84
65040;HTU21D;51606;45.000;38.612;2024-03-02T14:22:48;10.75;53.95
65040;HTU21D;51606;45.000;38.612;2024-03-02T14:25:15;10.70;54.06
65040;HTU21D;51606;45.000;38.612;2024-03-02T14:27:42;10.60;54.19
65040;HTU21D;51606;45.000;38.612;2024-03-02T14:30:09;10.52;54.31
65040;HTU21D;51606;45.000;38.612;2024-03-02T14:32:36;10.45;54.39
65040;HTU21D;51606;45.000;38.612;2024-03-02T14:35:02;10.39;54.52
65040;HTU21D;51606;45.000;38.612;2024-03-02T14:37:29;10.33;54.64
65040;HTU21D;51606;45.000;38.612;2024-03-02T14:39:55;10.24;54.75
65040;HTU21D;51606;45.000;38.612;2024-03-02T14:42:22;10.15;54.80
65040;HTU21D;51606;45.000;38.612;2024-03-02T14:44:49;10.07;54.98
65040;HTU21D;51606;45.000;38.612;2024-03-02T14:47:15;9.98;55.09
65040;HTU21D;51606;45.000;38.612;2024-03-02T14:49:43;9.91;55.23
65040;HTU21D;51606;45.000;38.612;2024-03-02T14:52:10;9.84;55.35
65040;HTU21D;51606;45.000;38.612;2024-03-02T14:54:36;9.77;55.54
65040;HTU21D;51606;45.000;38.612;2024-03-02T14:57:04;9.67;55.68
65040;HTU21D;51606;45.000;38.612;2024-03-02T14:59:30;9.60;55.75
65040;HTU21D;51606;45.000;38.612;2024-03-02T15:01:57;9.49;55.89
65040;HTU21D;51606;45.000;38.612;2024-03-02T15:04:23;9.38;56.10
65040;HTU21D;51606;45.000;38.612;2024-03-02T15:06:50;9.25;56.23
65040;HTU21D;51606;45.000;38.612;2024-03-02T15:09:16;9.18;56.44
65040;HTU21D;51606;45.000;38.612;2024-03-02T15:11:45;9.10;56.59
65040;HTU21D;51606;45.000;38.612;2024-03-02T15:14:12;9.04;56.81
65040;HTU21D;51606;45.000;38.612;2024-03-02T15:16:38;8.96;56.82
65040;HTU21D;51606;45.000;38.612;2024-03-02T15:19:05;8.91;57.00
65040;HTU21D;51606;45.000;38.612;2024-03-02T15:21:32;8.85;57.09
65040;HTU21D;51606;45.000;38.612;2024-03-02T15:23:58;8.76;57.19
65040;HTU21D;51606;45.000;38.612;2024-03-02T15:26:25;8.70;57.40
65040;HTU21D;51606;45.000;38.612;2024-03-02T15:28:51;8.63;57.45
65040;HTU21D;51606;45.000;38.612;2024-03-02T15:31:19;8.57;57.49
65040;HTU21D;51606;45.000;38.612;2024-03-02T15:33:45;8.48;57.57
65040;HTU21D;51606;45.000;38.612;2024-03-02T15:36:12;8.42;57.65
65040;HTU21D;51606;45.000;38.612;2024-03-02T15:38:38;8.32;57.68
65040;HTU21D;51606;45.000;38.612;2024-03-02T15:41:04;8.27;57.76
65040;HTU21D;51606;45.000;38.612;2024-03-02T15:43:31;8.19;57.79
65040;HTU21D;51606;45.000;38.612;2024-03-02T15:45:58;8.12;57.92
65040;HTU21D;51606;45.000;38.612;2024-03-02T15:48:25;8.06;58.07
65040;HTU21D;51606;45.000;38.612;2024-03-02T15:50:51;8.03;58.10
65040;HTU21D;51606;45.000;38.612;2024-03-02T15:53:18;8.00;58.09
65040;HTU21D;51606;45.000;38.612;2024-03-02T15:55:47;7.96;58.16
65040;HTU21D;51606;45.000;38.612;2024-03-02T15:58:14;7.91;58.19
65040;HTU21D;51606;45.000;38.612;2024-03-02T16:00:40;7.88;58.31
65040;HTU21D;51606;45.000;38.612;2024-03-02T16:03:07;7.83;58.30
65040;HTU21D;51606;45.000;38.612;2024-03-02T16:05:33;7.76;58.32
65040;HTU21D;51606;45.000;38.612;2024-03-02T16:07:59;7.69;58.43
65040;HTU21D;51606;45.000;38.612;2024-03-02T16:10:26;7.59;58.46
65040;HTU21D;51606;45.000;38.612;2024-03-02T16:12:53;7.50;58.70
65040;HTU21D;51606;45.000;38.612;2024-03-02T16:15:19;7.44;58.63
65040;HTU21D;51606;45.000;38.612;2024-03-02T16:17:46;7.37;58.65
65040;HTU21D;51606;45.000;38.612;2024-03-02T16:20:12;7.29;58.77
65040;HTU21D;51606;45.000;38.612;2024-03-02T16:22:39;7.25;58.81
65040;HTU21D;51606;45.000;38.612;2024-03-02T16:25:05;7.20;58.95
65040;HTU21D;51606;45.000;38.612;2024-03-02T16:27:32;7.17;58.90
65040;HTU21D;51606;45.000;38.612;2024-03-02T16:29:58;7.16;59.02
65040;HTU21D;51606;45.000;38.612;2024-03-02T16:32:25;7.13;58.96
65040;HTU21D;51606;45.000;38.612;2024-03-02T16:34:52;7.08;58.88
65040;HTU21D;51606;45.000;38.612;2024-03-02T16:37:19;7.02;58.97
65040;HTU21D;51606;45.000;38.612;2024-03-02T16:39:45;6.98;59.05
65040;HTU21D;51606;45.000;38.612;2024-03-02T16:42:12;6.95;59.21
65040;HTU21D;51606;45.000;38.612;2024-03-02T16:44:39;6.91;59.10
65040;HTU21D;51606;45.000;38.612;2024-03-02T16:47:05;6.86;59.12
65040;HTU21D;51606;45.000;38.612;2024-03-02T16:49:32;6.82;59.11
65040;HTU21D;51606;45.000;38.612;2024-03-02T16:51:58;6.76;59.17
65040;HTU21D;51606;45.000;38.612;2024-03-02T16:54:24;6.72;59.22
65040;HTU21D;51606;45.000;38.612;2024-03-02T16:56:51;6.68;59.28
65040;HTU21D;51606;45.000;38.612;2024-03-02T16:59:17;6.64;59.35
65040;HTU21D;51606;45.000;38.612;2024-03-02T17:01:43;6.59;59.44
65040;HTU21D;51606;45.000;38.612;2024-03-02T17:04:10;6.54;59.55
65040;HTU21D;51606;45.000;38.612;2024-03-02T17:06:36;6.49;59.60
65040;HTU21D;51606;45.000;38.612;2024-03-02T17:09:03;6.41;59.61
65040;HTU21D;51606;45.000;38.612;2024-03-02T17:11:29;6.33;59.70
65040;HTU21D;51606;45.000;38.612;2024-03-02T17:13:57;6.26;59.79
65040;HTU21D;51606;45.000;38.612;2024-03-02T17:16:24;6.19;59.78
65040;HTU21D;51606;45.000;38.612;2024-03-02T17:18:51;6.11;59.80
65040;HTU21D;51606;45.000;38.612;2024-03-02T17:21:17;6.04;59.84
65040;HTU21D;51606;45.000;38.612;2024-03-02T17:23:45;5.98;59.87
65040;HTU21D;51606;45.000;38.612;2024-03-02T17:26:11;5.89;59.89
65040;HTU21D;51606;45.000;38.612;2024-03-02T17:28:38;5.83;59.96
65040;HTU21D;51606;45.000;38.612;2024-03-02T17:31:06;5.80;60.02
65040;HTU21D;51606;45.000;38.612;2024-03-02T17:33:32;5.79;60.09
65040;HTU21D;51606;45.000;38.612;2024-03-02T17:35:59;5.78;60.13
65040;HTU21D;51606;45.000;38.612;2024-03-02T17:38:25;5.77;60.08
65040;HTU21D;51606;45.000;38.612;2024-03-02T17:40:52;5.72;60.10
65040;HTU21D;51606;45.000;38.612;2024-03-02T17:43:18;5.69;60.17
65040;HTU21D;51606;45.000;38.612;2024-03-02T17:45:44;5.68;60.23
65040;HTU21D;51606;45.000;38.612;2024-03-02T17:48:11;5.66;60.32
65040;HTU21D;51606;45.000;38.612;2024-03-02T17:50:40;5.62;60.27
65040;HTU21D;51606;45.000;38.612;2024-03-02T17:53:07;5.59;60.32
65040;HTU21D;51606;45.000;38.612;2024-03-02T17:55:33;5.56;60.35
65040;HTU21D;51606;45.000;38.612;2024-03-02T17:58:00;5.56;60.35
65040;HTU21D;51606;45.000;38.612;2024-03-02T18:00:26;5.55;60.35
65040;HTU21D;51606;45.000;38.612;2024-03-02T18:02:52;5.55;60.34
65040;HTU21D;51606;45.000;38.612;2024-03-02T18:05:19;5.55;60.35
65040;HTU21D;51606;45.000;38.612;2024-03-02T18:07:45;5.54;60.36
65040;HTU21D;51606;45.000;38.612;2024-03-02T18:10:12;5.53;60.35
65040;HTU21D;51606;45.000;38.612;2024-03-02T18:12:38;5.55;60.50
65040;HTU21D;51606;45.000;38.612;2024-03-02T18:15:09;5.61;60.58
65040;HTU21D;51606;45.000;38.612;2024-03-02T18:17:36;5.62;60.54
65040;HTU21D;51606;45.000;38.612;2024-03-02T18:20:03;5.63;60.51
65040;HTU21D;51606;45.000;38.612;2024-03-02T18:22:33;5.62;60.49
65040;HTU21D;51606;45.000;38.612;2024-03-02T18:25:01;5.57;60.50
65040;HTU21D;51606;45.000;38.612;2024-03-02T18:27:27;5.56;60.57
65040;HTU21D;51606;45.000;38.612;2024-03-02T18:29:53;5.54;60.56
65040;HTU21D;51606;45.000;38.612;2024-03-02T18:32:20;5.52;60.62
65040;HTU21D;51606;45.000;38.612;2024-03-02T18:34:46;5.52;60.70
65040;HTU21D;51606;45.000;38.612;2024-03-02T18:37:13;5.54;60.73
65040;HTU21D;51606;45.000;38.612;2024-03-02T18:39:41;5.57;60.81
65040;HTU21D;51606;45.000;38.612;2024-03-02T18:42:07;5.62;60.78
65040;HTU21D;51606;45.000;38.612;2024-03-02T18:44:34;5.59;60.83
65040;HTU21D;51606;45.000;38.612;2024-03-02T18:47:00;5.59;60.89
65040;HTU21D;51606;45.000;38.612;2024-03-02T18:49:27;5.57;60.98
65040;HTU21D;51606;45.000;38.612;2024-03-02T18:51:53;5.56;61.00
65040;HTU21D;51606;45.000;38.612;2024-03-02T18:54:20;5.54;61.11
65040;HTU21D;51606;45.000;38.612;2024-03-02T18:56:46;5.53;61.27
65040;HTU21D;51606;45.000;38.612;2024-03-02T18:59:13;5.54;61.27
65040;HTU21D;51606;45.000;38.612;2024-03-02T19:01:39;5.52;61.33
65040;HTU21D;51606;45.000;38.612;2024-03-02T19:04:06;5.50;61.31
65040;HTU21D;51606;45.000;38.612;2024-03-02T19:06:32;5.47;61.43
65040;HTU21D;51606;45.000;38.612;2024-03-02T19:08:58;5.48;61.50
65040;HTU21D;51606;45.000;38.612;2024-03-02T19:11:25;5.49;61.52
65040;HTU21D;51606;45.000;38.612;2024-03-02T19:13:51;5.50;61.63
65040;HTU21D;51606;45.000;38.612;2024-03-02T19:16:18;5.50;61.57
65040;HTU21D;51606;45.000;38.612;2024-03-02T19:18:45;5.47;61.54
65040;HTU21D;51606;45.000;38.612;2024-03-02T19:21:11;5.43;61.60
65040;HTU21D;51606;45.000;38.612;2024-03-02T19:23:37;5.41;61.75
65040;HTU21D;51606;45.000;38.612;2024-03-02T19:27:10;5.41;62.00
65040;HTU21D;51606;45.000;38.612;2024-03-02T19:29:20;5.47;62.11
65040;HTU21D;51606;45.000;38.612;2024-03-02T19:31:49;5.53;62.14
65040;HTU21D;51606;45.000;38.612;2024-03-02T19:34:15;5.57;62.10
65040;HTU21D;51606;45.000;38.612;2024-03-02T19:36:42;5.66;62.10
65040;HTU21D;51606;45.000;38.612;2024-03-02T19:39:08;5.69;62.15
65040;HTU21D;51606;45.000;38.612;2024-03-02T19:41:36;5.75;62.13
65040;HTU21D;51606;45.000;38.612;2024-03-02T19:44:03;5.78;62.19
65040;HTU21D;51606;45.000;38.612;2024-03-02T19:46:29;5.79;62.23
65040;HTU21D;51606;45.000;38.612;2024-03-02T19:48:56;5.77;62.26
65040;HTU21D;51606;45.000;38.612;2024-03-02T19:51:22;5.79;62.41
65040;HTU21D;51606;45.000;38.612;2024-03-02T19:53:48;5.81;62.35
65040;HTU21D;51606;45.000;38.612;2024-03-02T19:56:18;5.84;62.58
65040;HTU21D;51606;45.000;38.612;2024-03-02T19:58:45;5.91;62.44
65040;HTU21D;51606;45.000;38.612;2024-03-02T20:01:11;5.91;62.42
